sensor_id;sensor_type;location;lat;lon;timestamp;pressure;altitude;pressure_sealevel;temperature;humidity
8890;BME280;4481;43.406;24.454;2022-09-16T00:02:03;75189.47;;;-144.09;77.32
8890;BME280;4481;43.406;24.454;2022-09-16T00:04:29;75189.47;;;-144.09;77.15
8890;BME280;4481;43.406;24.454;2022-09-16T00:06:55;75202.00;;;-144.09;76.54
8890;BME280;4481;43.406;24.454;2022-09-16T00:09:22;75204.06;;;-144.09;76.01
8890;BME280;4481;43.406;24.454;2022-09-16T00:11:48;75202.00;;;-144.09;75.90
8890;BME280;4481;43.406;24.454;2022-09-16T00:14:14;75199.91;;;-144.09;75.53
8890;BME280;4481;43.406;24.454;2022-09-16T00:16:40;75204.06;;;-144.09;75.46
8890;BME280;4481;43.406;24.454;2022-09-16T00:19:07;75202.00;;;-144.09;75.72
8890;BME280;4481;43.406;24.454;2022-09-16T00:21:34;75199.91;;;-144.09;75.90
8890;BME280;4481;43.406;24.454;2022-09-16T00:24:00;75189.47;;;-144.09;76.58
8890;BME280;4481;43.406;24.454;2022-09-16T00:26:27;75189.47;;;-144.09;76.62
8890;BME280;4481;43.406;24.454;2022-09-16T00:28:54;75191.53;;;-144.09;76.83
8890;BME280;4481;43.406;24.454;2022-09-16T00:31:20;75193.63;;;-144.09;76.84
8890;BME280;4481;43.406;24.454;2022-09-16T00:33:46;75189.47;;;-144.09;76.38
8890;BME280;4481;43.406;24.454;2022-09-16T00:36:14;75193.63;;;-144.09;76.24
8890;BME280;4481;43.406;24.454;2022-09-16T00:38:41;75197.81;;;-144.09;76.29
8890;BME280;4481;43.406;24.454;2022-09-16T00:41:13;75197.81;;;-144.09;76.47
8890;BME280;4481;43.406;24.454;2022-09-16T00:43:52;75199.91;;;-144.09;75.24
8890;BME280;4481;43.406;24.454;2022-09-16T00:46:22;75202.00;;;-144.09;75.55
8890;BME280;4481;43.406;24.454;2022-09-16T00:48:50;75202.00;;;-144.09;75.09
8890;BME280;4481;43.406;24.454;2022-09-16T00:51:16;75204.06;;;-144.09;74.62
8890;BME280;4481;43.406;24.454;2022-09-16T00:53:45;75202.00;;;-144.09;74.66
8890;BME280;4481;43.406;24.454;2022-09-16T00:56:17;75204.06;;;-144.09;74.35
8890;BME280;4481;43.406;24.454;2022-09-16T00:58:49;75202.00;;;-144.09;74.19
8890;BME280;4481;43.406;24.454;2022-09-16T01:01:18;75197.81;;;-144.09;74.08
8890;BME280;4481;43.406;24.454;2022-09-16T01:03:47;75206.16;;;-144.09;73.87
8890;BME280;4481;43.406;24.454;2022-09-16T01:06:15;75185.28;;;-144.09;73.64
8890;BME280;4481;43.406;24.454;2022-09-16T01:08:44;75185.28;;;-144.09;73.54
8890;BME280;4481;43.406;24.454;2022-09-16T01:11:11;75185.28;;;-144.09;73.52
8890;BME280;4481;43.406;24.454;2022-09-16T01:13:37;75181.09;;;-144.09;73.97
8890;BME280;4481;43.406;24.454;2022-09-16T01:16:07;75176.94;;;-144.09;74.98
8890;BME280;4481;43.406;24.454;2022-09-16T01:18:40;75174.84;;;-144.09;75.07
8890;BME280;4481;43.406;24.454;2022-09-16T01:21:23;75172.75;;;-144.09;75.24
8890;BME280;4481;43.406;24.454;2022-09-16T01:30:13;75185.28;;;-144.09;74.79
8890;BME280;4481;43.406;24.454;2022-09-16T01:32:56;75185.28;;;-144.09;74.22
8890;BME280;4481;43.406;24.454;2022-09-16T01:35:34;75174.84;;;-144.09;74.12
8890;BME280;4481;43.406;24.454;2022-09-16T01:38:09;75176.94;;;-144.09;73.66
8890;BME280;4481;43.406;24.454;2022-09-16T01:40:42;75176.94;;;-144.09;73.63
8890;BME280;4481;43.406;24.454;2022-09-16T01:43:17;75170.66;;;-144.09;74.12
8890;BME280;4481;43.406;24.454;2022-09-16T01:45:52;75162.31;;;-144.09;74.07
8890;BME280;4481;43.406;24.454;2022-09-16T01:48:23;75164.41;;;-144.09;73.71
8890;BME280;4481;43.406;24.454;2022-09-16T01:50:59;75172.75;;;-144.09;73.49
8890;BME280;4481;43.406;24.454;2022-09-16T01:53:32;75170.66;;;-144.09;73.44
8890;BME280;4481;43.406;24.454;2022-09-16T01:56:05;75168.56;;;-144.09;73.25
8890;BME280;4481;43.406;24.454;2022-09-16T01:58:38;75166.47;;;-144.09;72.96
8890;BME280;4481;43.406;24.454;2022-09-16T02:01:11;75166.47;;;-144.09;72.95
8890;BME280;4481;43.406;24.454;2022-09-16T02:03:41;75164.41;;;-144.09;73.23
8890;BME280;4481;43.406;24.454;2022-09-16T02:06:11;75164.41;;;-144.09;73.47
8890;BME280;4481;43.406;24.454;2022-09-16T02:08:42;75162.31;;;-144.09;73.29
8890;BME280;4481;43.406;24.454;2022-09-16T02:11:13;75160.22;;;-144.09;73.20
8890;BME280;4481;43.406;24.454;2022-09-16T02:13:44;75151.84;;;-144.09;73.21
8890;BME280;4481;43.406;24.454;2022-09-16T02:16:15;75145.59;;;-144.09;73.01
8890;BME280;4481;43.406;24.454;2022-09-16T02:18:48;75145.59;;;-144.09;73.09
8890;BME280;4481;43.406;24.454;2022-09-16T02:21:17;75147.69;;;-144.09;73.07
8890;BME280;4481;43.406;24.454;2022-09-16T02:23:49;75145.59;;;-144.09;73.15
8890;BME280;4481;43.406;24.454;2022-09-16T02:26:18;75139.31;;;-144.09;73.21
8890;BME280;4481;43.406;24.454;2022-09-16T02:28:47;75137.25;;;-144.09;72.97
8890;BME280;4481;43.406;24.454;2022-09-16T02:31:16;75143.50;;;-144.09;72.76
8890;BME280;4481;43.406;24.454;2022-09-16T02:33:49;75143.50;;;-144.09;72.86
8890;BME280;4481;43.406;24.454;2022-09-16T02:36:18;75137.25;;;-144.09;72.61
8890;BME280;4481;43.406;24.454;2022-09-16T02:38:49;75141.41;;;-144.09;72.48
8890;BME280;4481;43.406;24.454;2022-09-16T02:41:18;75133.06;;;-144.09;72.38
8890;BME280;4481;43.406;24.454;2022-09-16T02:43:44;75143.50;;;-144.09;72.79
8890;BME280;4481;43.406;24.454;2022-09-16T02:46:18;75145.59;;;-144.09;72.86
8890;BME280;4481;43.406;24.454;2022-09-16T02:48:55;75143.50;;;-144.09;73.08
8890;BME280;4481;43.406;24.454;2022-09-16T02:51:30;75143.50;;;-144.09;72.98
8890;BME280;4481;43.406;24.454;2022-09-16T02:54:01;75160.22;;;-144.09;73.53
8890;BME280;4481;43.406;24.454;2022-09-16T02:56:33;75160.22;;;-144.09;73.82
8890;BME280;4481;43.406;24.454;2022-09-16T02:59:02;75151.84;;;-144.09;74.10
8890;BME280;4481;43.406;24.454;2022-09-16T03:01:31;75153.94;;;-144.09;74.22
8890;BME280;4481;43.406;24.454;2022-09-16T03:04:00;75166.47;;;-144.09;74.22
8890;BME280;4481;43.406;24.454;2022-09-16T03:06:26;75166.47;;;-144.09;74.69
8890;BME280;4481;43.406;24.454;2022-09-16T03:08:57;75170.66;;;-144.09;74.32
8890;BME280;4481;43.406;24.454;2022-09-16T03:11:52;75168.56;;;-144.09;74.77
8890;BME280;4481;43.406;24.454;2022-09-16T03:17:29;75181.09;;;-144.09;75.95
8890;BME280;4481;43.406;24.454;2022-09-16T03:20:02;75206.16;;;-144.09;78.00
8890;BME280;4481;43.406;24.454;2022-09-16T03:22:43;75204.06;;;-144.09;79.28
8890;BME280;4481;43.406;24.454;2022-09-16T03:25:22;75208.25;;;-144.09;79.82
8890;BME280;4481;43.406;24.454;2022-09-16T03:28:01;75224.97;;;-144.09;80.27
8890;BME280;4481;43.406;24.454;2022-09-16T03:30:31;75243.75;;;-144.09;81.09
8890;BME280;4481;43.406;24.454;2022-09-16T03:33:03;75247.94;;;-144.09;81.57
8890;BME280;4481;43.406;24.454;2022-09-16T03:35:33;75254.22;;;-144.09;81.67
8890;BME280;4481;43.406;24.454;2022-09-16T03:38:05;75254.22;;;-144.09;81.44
8890;BME280;4481;43.406;24.454;2022-09-16T03:40:33;75264.66;;;-144.09;81.06
8890;BME280;4481;43.406;24.454;2022-09-16T03:43:09;75270.91;;;-144.09;80.97
8890;BME280;4481;43.406;24.454;2022-09-16T03:45:36;75279.28;;;-144.09;80.02
8890;BME280;4481;43.406;24.454;2022-09-16T03:48:02;75281.38;;;-144.09;79.41
8890;BME280;4481;43.406;24.454;2022-09-16T03:50:28;75281.38;;;-144.09;79.52
8890;BME280;4481;43.406;24.454;2022-09-16T03:52:55;75285.53;;;-144.09;79.16
8890;BME280;4481;43.406;24.454;2022-09-16T03:55:21;75289.72;;;-144.09;78.86
8890;BME280;4481;43.406;24.454;2022-09-16T03:57:47;75293.91;;;-144.09;78.87
8890;BME280;4481;43.406;24.454;2022-09-16T04:00:14;75295.97;;;-144.09;79.98
8890;BME280;4481;43.406;24.454;2022-09-16T04:02:40;75295.97;;;-144.09;80.71
8890;BME280;4481;43.406;24.454;2022-09-16T04:05:07;75302.25;;;-144.09;80.56
8890;BME280;4481;43.406;24.454;2022-09-16T04:07:34;75298.06;;;-144.09;80.37
8890;BME280;4481;43.406;24.454;2022-09-16T04:10:01;75302.25;;;-144.09;80.70
8890;BME280;4481;43.406;24.454;2022-09-16T04:12:27;75300.16;;;-144.09;81.47
8890;BME280;4481;43.406;24.454;2022-09-16T04:14:54;75293.91;;;-144.09;81.29
8890;BME280;4481;43.406;24.454;2022-09-16T04:17:20;75291.81;;;-144.09;80.99
8890;BME280;4481;43.406;24.454;2022-09-16T04:19:46;75293.91;;;-144.09;80.23
8890;BME280;4481;43.406;24.454;2022-09-16T04:22:12;75291.81;;;-144.09;80.94
8890;BME280;4481;43.406;24.454;2022-09-16T04:24:38;75283.44;;;-144.09;80.73
8890;BME280;4481;43.406;24.454;2022-09-16T04:27:05;75279.28;;;-144.09;81.17
8890;BME280;4481;43.406;24.454;2022-09-16T04:29:31;75270.91;;;-144.09;82.13
8890;BME280;4481;43.406;24.454;2022-09-16T04:31:57;75262.56;;;-144.09;82.29
8890;BME280;4481;43.406;24.454;2022-09-16T04:34:24;75266.75;;;-144.09;82.48
8890;BME280;4481;43.406;24.454;2022-09-16T04:36:51;75260.47;;;-144.09;82.46
8890;BME280;4481;43.406;24.454;2022-09-16T04:39:17;75260.47;;;-144.09;82.50
8890;BME280;4481;43.406;24.454;2022-09-16T04:41:43;75256.28;;;-144.09;82.41
8890;BME280;4481;43.406;24.454;2022-09-16T04:44:10;75252.13;;;-144.09;81.82
8890;BME280;4481;43.406;24.454;2022-09-16T04:46:37;75252.13;;;-144.09;80.78
8890;BME280;4481;43.406;24.454;2022-09-16T04:49:03;75254.22;;;-144.09;80.08
8890;BME280;4481;43.406;24.454;2022-09-16T04:51:29;75252.13;;;-144.09;78.45
8890;BME280;4481;43.406;24.454;2022-09-16T04:53:57;75231.22;;;-144.09;73.82
8890;BME280;4481;43.406;24.454;2022-09-16T04:56:26;75212.44;;;-144.09;73.45
8890;BME280;4481;43.406;24.454;2022-09-16T04:58:54;75210.34;;;-144.09;74.30
8890;BME280;4481;43.406;24.454;2022-09-16T05:01:23;75197.81;;;-144.09;75.44
8890;BME280;4481;43.406;24.454;2022-09-16T05:03:51;75189.47;;;-144.09;75.50
8890;BME280;4481;43.406;24.454;2022-09-16T05:06:20;75183.19;;;-144.09;75.33
8890;BME280;4481;43.406;24.454;2022-09-16T05:08:46;75166.47;;;-144.09;74.97
8890;BME280;4481;43.406;24.454;2022-09-16T05:11:16;75164.41;;;-144.09;74.13
8890;BME280;4481;43.406;24.454;2022-09-16T05:13:43;75162.31;;;-144.09;74.28
8890;BME280;4481;43.406;24.454;2022-09-16T05:16:10;75158.13;;;-144.09;74.09
8890;BME280;4481;43.406;24.454;2022-09-16T05:18:38;75151.84;;;-144.09;73.77
8890;BME280;4481;43.406;24.454;2022-09-16T05:21:07;75143.50;;;-144.09;73.47
8890;BME280;4481;43.406;24.454;2022-09-16T05:23:34;75133.06;;;-144.09;72.44
8890;BME280;4481;43.406;24.454;2022-09-16T05:26:02;75110.09;;;-144.09;72.09
8890;BME280;4481;43.406;24.454;2022-09-16T05:28:28;75076.66;;;-144.09;70.93
8890;BME280;4481;43.406;24.454;2022-09-16T05:30:55;75047.44;;;-144.09;70.13
8890;BME280;4481;43.406;24.454;2022-09-16T05:33:21;75018.19;;;-144.09;69.00
8890;BME280;4481;43.406;24.454;2022-09-16T05:35:48;74984.78;;;-144.09;67.79
8890;BME280;4481;43.406;24.454;2022-09-16T05:38:14;74945.09;;;-144.09;67.10
8890;BME280;4481;43.406;24.454;2022-09-16T05:40:40;74907.50;;;-144.09;66.29
8890;BME280;4481;43.406;24.454;2022-09-16T05:43:07;74874.06;;;-144.09;64.90
8890;BME280;4481;43.406;24.454;2022-09-16T05:45:33;74871.97;;;-144.09;64.21
8890;BME280;4481;43.406;24.454;2022-09-16T05:48:00;74857.38;;;-144.09;64.39
8890;BME280;4481;43.406;24.454;2022-09-16T05:50:26;74823.94;;;-144.09;63.32
8890;BME280;4481;43.406;24.454;2022-09-16T05:52:53;74817.69;;;-144.09;62.97
8890;BME280;4481;43.406;24.454;2022-09-16T05:55:19;74800.97;;;-144.09;61.89
8890;BME280;4481;43.406;24.454;2022-09-16T05:57:45;74807.25;;;-144.09;62.93
8890;BME280;4481;43.406;24.454;2022-09-16T06:00:12;74803.06;;;-144.09;61.96
8890;BME280;4481;43.406;24.454;2022-09-16T06:02:39;74780.09;;;-144.09;61.93
8890;BME280;4481;43.406;24.454;2022-09-16T06:05:05;74775.91;;;-144.09;61.21
8890;BME280;4481;43.406;24.454;2022-09-16T06:07:32;74759.22;;;-144.09;60.82
8890;BME280;4481;43.406;24.454;2022-09-16T06:09:59;74767.56;;;-144.09;60.79
8890;BME280;4481;43.406;24.454;2022-09-16T06:12:26;74773.81;;;-144.09;61.75
8890;BME280;4481;43.406;24.454;2022-09-16T06:14:52;74813.50;;;-144.09;62.81
8890;BME280;4481;43.406;24.454;2022-09-16T06:17:19;74792.63;;;-144.09;62.63
8890;BME280;4481;43.406;24.454;2022-09-16T06:19:45;74786.34;;;-144.09;62.13
8890;BME280;4481;43.406;24.454;2022-09-16T06:22:11;74773.81;;;-144.09;62.20
8890;BME280;4481;43.406;24.454;2022-09-16T06:24:37;74759.22;;;-144.09;62.20
8890;BME280;4481;43.406;24.454;2022-09-16T06:27:04;74740.41;;;-144.09;61.97
8890;BME280;4481;43.406;24.454;2022-09-16T06:29:30;74752.94;;;-144.09;62.16
8890;BME280;4481;43.406;24.454;2022-09-16T06:31:56;74759.22;;;-144.09;62.88
8890;BME280;4481;43.406;24.454;2022-09-16T06:34:22;74790.53;;;-144.09;63.59
8890;BME280;4481;43.406;24.454;2022-09-16T06:36:49;74805.16;;;-144.09;64.73
8890;BME280;4481;43.406;24.454;2022-09-16T06:39:15;74786.34;;;-144.09;64.16
8890;BME280;4481;43.406;24.454;2022-09-16T06:41:42;74775.91;;;-144.09;63.79
8890;BME280;4481;43.406;24.454;2022-09-16T06:44:09;74794.72;;;-144.09;64.91
8890;BME280;4481;43.406;24.454;2022-09-16T06:46:36;74798.88;;;-144.09;65.15
8890;BME280;4481;43.406;24.454;2022-09-16T06:49:03;74786.34;;;-144.09;64.90
8890;BME280;4481;43.406;24.454;2022-09-16T06:51:30;74775.91;;;-144.09;64.68
8890;BME280;4481;43.406;24.454;2022-09-16T06:53:59;74750.84;;;-144.09;64.50
8890;BME280;4481;43.406;24.454;2022-09-16T06:56:26;74704.91;;;-144.09;63.18
8890;BME280;4481;43.406;24.454;2022-09-16T06:58:52;74675.66;;;-144.09;61.82
8890;BME280;4481;43.406;24.454;2022-09-16T07:01:22;74669.41;;;-144.09;62.57
8890;BME280;4481;43.406;24.454;2022-09-16T07:03:49;74658.97;;;-144.09;62.60
8890;BME280;4481;43.406;24.454;2022-09-16T07:06:17;74644.34;;;-144.09;60.71
8890;BME280;4481;43.406;24.454;2022-09-16T07:08:44;74625.53;;;-144.09;60.16
8890;BME280;4481;43.406;24.454;2022-09-16T07:11:12;74610.94;;;-144.09;59.86
8890;BME280;4481;43.406;24.454;2022-09-16T07:13:39;74608.84;;;-144.09;59.20
8890;BME280;4481;43.406;24.454;2022-09-16T07:16:07;74613.00;;;-144.09;58.90
8890;BME280;4481;43.406;24.454;2022-09-16T07:18:35;74619.28;;;-144.09;59.89
8890;BME280;4481;43.406;24.454;2022-09-16T07:21:02;74585.88;;;-144.09;59.61
8890;BME280;4481;43.406;24.454;2022-09-16T07:23:29;74585.88;;;-144.09;59.60
8890;BME280;4481;43.406;24.454;2022-09-16T07:26:00;74585.88;;;-144.09;59.05
8890;BME280;4481;43.406;24.454;2022-09-16T07:28:26;74571.25;;;-144.09;59.06
8890;BME280;4481;43.406;24.454;2022-09-16T07:30:53;74562.91;;;-144.09;59.65
8890;BME280;4481;43.406;24.454;2022-09-16T07:33:19;74625.53;;;-144.09;60.54
8890;BME280;4481;43.406;24.454;2022-09-16T07:35:46;74604.66;;;-144.09;59.52
8890;BME280;4481;43.406;24.454;2022-09-16T07:38:12;74560.81;;;-144.09;58.32
8890;BME280;4481;43.406;24.454;2022-09-16T07:40:38;74531.56;;;-144.09;57.76
8890;BME280;4481;43.406;24.454;2022-09-16T07:43:05;74502.34;;;-144.09;57.50
8890;BME280;4481;43.406;24.454;2022-09-16T07:45:31;74510.69;;;-144.09;58.08
8890;BME280;4481;43.406;24.454;2022-09-16T07:47:57;74481.44;;;-144.09;57.55
8890;BME280;4481;43.406;24.454;2022-09-16T07:50:24;74433.41;;;-144.09;54.17
8890;BME280;4481;43.406;24.454;2022-09-16T07:52:53;74385.38;;;-144.09;53.79
8890;BME280;4481;43.406;24.454;2022-09-16T07:55:19;74377.03;;;-144.09;53.38
8890;BME280;4481;43.406;24.454;2022-09-16T07:57:45;74416.72;;;-144.09;54.24
8890;BME280;4481;43.406;24.454;2022-09-16T08:00:12;74416.72;;;-144.09;54.04
8890;BME280;4481;43.406;24.454;2022-09-16T08:02:40;74395.84;;;-144.09;54.01
8890;BME280;4481;43.406;24.454;2022-09-16T08:05:07;74408.38;;;-144.09;54.05
8890;BME280;4481;43.406;24.454;2022-09-16T08:07:34;74437.59;;;-144.09;54.44
8890;BME280;4481;43.406;24.454;2022-09-16T08:10:01;74448.03;;;-144.09;54.68
8890;BME280;4481;43.406;24.454;2022-09-16T08:12:28;74445.94;;;-144.09;53.62
8890;BME280;4481;43.406;24.454;2022-09-16T08:14:57;74433.41;;;-144.09;54.47
8890;BME280;4481;43.406;24.454;2022-09-16T08:17:23;74452.22;;;-144.09;55.76
8890;BME280;4481;43.406;24.454;2022-09-16T08:19:49;74439.69;;;-144.09;55.54
8890;BME280;4481;43.406;24.454;2022-09-16T08:22:15;74441.78;;;-144.09;56.09
8890;BME280;4481;43.406;24.454;2022-09-16T08:24:42;74445.94;;;-144.09;54.77
8890;BME280;4481;43.406;24.454;2022-09-16T08:27:08;74456.41;;;-144.09;54.44
8890;BME280;4481;43.406;24.454;2022-09-16T08:29:35;74435.50;;;-144.09;55.37
8890;BME280;4481;43.406;24.454;2022-09-16T08:32:01;74422.97;;;-144.09;52.80
8890;BME280;4481;43.406;24.454;2022-09-16T08:34:27;74416.72;;;-144.09;52.25
8890;BME280;4481;43.406;24.454;2022-09-16T08:36:53;74437.59;;;-144.09;53.08
8890;BME280;4481;43.406;24.454;2022-09-16T08:39:20;74454.31;;;-144.09;52.37
8890;BME280;4481;43.406;24.454;2022-09-16T08:42:25;74466.84;;;-144.09;52.75
8890;BME280;4481;43.406;24.454;2022-09-16T08:45:00;74464.75;;;-144.09;52.49
8890;BME280;4481;43.406;24.454;2022-09-16T08:47:37;74496.06;;;-144.09;53.41
8890;BME280;4481;43.406;24.454;2022-09-16T08:50:13;74460.56;;;-144.09;54.62
8890;BME280;4481;43.406;24.454;2022-09-16T08:52:41;74450.13;;;-144.09;52.46
8890;BME280;4481;43.406;24.454;2022-09-16T08:55:11;74437.59;;;-144.09;52.29
8890;BME280;4481;43.406;24.454;2022-09-16T08:57:42;74416.72;;;-144.09;52.22
8890;BME280;4481;43.406;24.454;2022-09-16T09:00:14;74402.09;;;-144.09;50.79
8890;BME280;4481;43.406;24.454;2022-09-16T09:02:46;74402.09;;;-144.09;51.75
8890;BME280;4481;43.406;24.454;2022-09-16T09:05:17;74370.78;;;-144.09;50.94
8890;BME280;4481;43.406;24.454;2022-09-16T09:07:55;74364.50;;;-144.09;51.58
8890;BME280;4481;43.406;24.454;2022-09-16T09:10:31;74354.06;;;-144.09;50.33
8890;BME280;4481;43.406;24.454;2022-09-16T09:13:12;74337.38;;;-144.09;50.41
8890;BME280;4481;43.406;24.454;2022-09-16T09:15:42;74333.19;;;-144.09;51.22
8890;BME280;4481;43.406;24.454;2022-09-16T09:18:27;74324.84;;;-144.09;50.46
8890;BME280;4481;43.406;24.454;2022-09-16T09:21:09;74341.53;;;-144.09;51.41
8890;BME280;4481;43.406;24.454;2022-09-16T09:23:47;74354.06;;;-144.09;51.59
8890;BME280;4481;43.406;24.454;2022-09-16T09:26:20;74356.16;;;-144.09;51.91
8890;BME280;4481;43.406;24.454;2022-09-16T09:29:09;74360.34;;;-144.09;49.35
8890;BME280;4481;43.406;24.454;2022-09-16T09:31:47;74314.38;;;-144.09;49.79
8890;BME280;4481;43.406;24.454;2022-09-16T09:34:28;74291.41;;;-144.09;49.05
8890;BME280;4481;43.406;24.454;2022-09-16T09:37:08;74289.34;;;-144.09;49.40
8890;BME280;4481;43.406;24.454;2022-09-16T09:39:50;74272.63;;;-144.09;47.54
8890;BME280;4481;43.406;24.454;2022-09-16T09:42:20;74266.38;;;-144.09;48.29
8890;BME280;4481;43.406;24.454;2022-09-16T09:44:55;74251.75;;;-144.09;45.54
8890;BME280;4481;43.406;24.454;2022-09-16T09:47:25;74243.41;;;-144.09;45.50
8890;BME280;4481;43.406;24.454;2022-09-16T09:49:56;74205.81;;;-144.09;46.23
8890;BME280;4481;43.406;24.454;2022-09-16T09:52:27;74168.22;;;-144.09;44.38
8890;BME280;4481;43.406;24.454;2022-09-16T09:54:54;74157.78;;;-144.09;43.83
8890;BME280;4481;43.406;24.454;2022-09-16T09:57:29;74164.03;;;-144.09;44.11
8890;BME280;4481;43.406;24.454;2022-09-16T10:00:02;74151.53;;;-144.09;44.60
8890;BME280;4481;43.406;24.454;2022-09-16T10:02:32;74141.06;;;-144.09;43.20
8890;BME280;4481;43.406;24.454;2022-09-16T10:04:59;74120.19;;;-144.09;43.89
8890;BME280;4481;43.406;24.454;2022-09-16T10:07:27;74093.06;;;-144.09;43.08
8890;BME280;4481;43.406;24.454;2022-09-16T10:09:57;74101.41;;;-144.09;43.68
8890;BME280;4481;43.406;24.454;2022-09-16T10:12:29;74126.47;;;-144.09;43.67
8890;BME280;4481;43.406;24.454;2022-09-16T10:14:56;74113.94;;;-144.09;42.66
8890;BME280;4481;43.406;24.454;2022-09-16T10:17:24;74151.53;;;-144.09;43.49
8890;BME280;4481;43.406;24.454;2022-09-16T10:19:54;74099.31;;;-144.09;43.69
8890;BME280;4481;43.406;24.454;2022-09-16T10:22:24;74076.34;;;-144.09;42.94
8890;BME280;4481;43.406;24.454;2022-09-16T10:24:56;74034.59;;;-144.09;42.42
8890;BME280;4481;43.406;24.454;2022-09-16T10:27:26;74007.44;;;-144.09;41.74
8890;BME280;4481;43.406;24.454;2022-09-16T10:30:03;74024.16;;;-144.09;40.10
8890;BME280;4481;43.406;24.454;2022-09-16T10:32:32;74005.34;;;-144.09;40.91
8890;BME280;4481;43.406;24.454;2022-09-16T10:35:06;74011.63;;;-144.09;41.55
8890;BME280;4481;43.406;24.454;2022-09-16T10:37:32;73984.47;;;-144.09;41.64
8890;BME280;4481;43.406;24.454;2022-09-16T10:39:58;73976.13;;;-144.09;41.35
8890;BME280;4481;43.406;24.454;2022-09-16T10:42:30;74028.31;;;-144.09;41.56
8890;BME280;4481;43.406;24.454;2022-09-16T10:45:02;74003.25;;;-144.09;42.42
8890;BME280;4481;43.406;24.454;2022-09-16T10:47:32;73982.38;;;-144.09;41.74
8890;BME280;4481;43.406;24.454;2022-09-16T10:50:02;73978.22;;;-144.09;41.51
8890;BME280;4481;43.406;24.454;2022-09-16T10:52:31;73986.56;;;-144.09;41.64
8890;BME280;4481;43.406;24.454;2022-09-16T10:55:11;74015.78;;;-144.09;42.37
8890;BME280;4481;43.406;24.454;2022-09-16T10:57:45;74032.50;;;-144.09;42.44
8890;BME280;4481;43.406;24.454;2022-09-16T11:00:14;74049.19;;;-144.09;43.12
8890;BME280;4481;43.406;24.454;2022-09-16T11:03:23;74065.91;;;-144.09;42.92
8890;BME280;4481;43.406;24.454;2022-09-16T11:06:03;74082.63;;;-144.09;43.68
8890;BME280;4481;43.406;24.454;2022-09-16T11:08:43;74099.31;;;-144.09;44.73
8890;BME280;4481;43.406;24.454;2022-09-16T11:11:19;74122.28;;;-144.09;45.59
8890;BME280;4481;43.406;24.454;2022-09-16T11:13:51;74157.78;;;-144.09;46.14
8890;BME280;4481;43.406;24.454;2022-09-16T11:16:30;74195.38;;;-144.09;47.94
8890;BME280;4481;43.406;24.454;2022-09-16T11:19:06;74182.84;;;-144.09;48.15
8890;BME280;4481;43.406;24.454;2022-09-16T11:21:54;74174.50;;;-144.09;48.09
8890;BME280;4481;43.406;24.454;2022-09-16T11:24:33;74178.66;;;-144.09;47.91
8890;BME280;4481;43.406;24.454;2022-09-16T11:27:06;74187.00;;;-144.09;48.35
8890;BME280;4481;43.406;24.454;2022-09-16T11:30:09;74189.09;;;-144.09;48.51
8890;BME280;4481;43.406;24.454;2022-09-16T11:32:58;74212.06;;;-144.09;49.03
8890;BME280;4481;43.406;24.454;2022-09-16T11:35:55;74205.81;;;-144.09;49.07
8890;BME280;4481;43.406;24.454;2022-09-16T11:38:29;74205.81;;;-144.09;49.05
8890;BME280;4481;43.406;24.454;2022-09-16T11:41:08;74199.53;;;-144.09;49.42
8890;BME280;4481;43.406;24.454;2022-09-16T11:46:37;74199.53;;;-144.09;50.08
8890;BME280;4481;43.406;24.454;2022-09-16T11:49:19;74241.31;;;-144.09;51.18
8890;BME280;4481;43.406;24.454;2022-09-16T11:52:00;74270.53;;;-144.09;50.50
8890;BME280;4481;43.406;24.454;2022-09-16T11:54:43;74295.59;;;-144.09;52.07
8890;BME280;4481;43.406;24.454;2022-09-16T11:57:15;74291.41;;;-144.09;52.98
8890;BME280;4481;43.406;24.454;2022-09-16T11:59:47;74291.41;;;-144.09;53.63
8890;BME280;4481;43.406;24.454;2022-09-16T12:02:21;74329.00;;;-144.09;57.45
8890;BME280;4481;43.406;24.454;2022-09-16T12:04:52;74356.16;;;-144.09;60.75
8890;BME280;4481;43.406;24.454;2022-09-16T12:07:27;74400.00;;;-144.09;63.13
8890;BME280;4481;43.406;24.454;2022-09-16T12:09:59;74381.22;;;-144.09;63.50
8890;BME280;4481;43.406;24.454;2022-09-16T12:12:30;74400.00;;;-144.09;63.08
8890;BME280;4481;43.406;24.454;2022-09-16T12:15:02;74406.28;;;-144.09;63.98
8890;BME280;4481;43.406;24.454;2022-09-16T12:17:32;74404.19;;;-144.09;64.59
8890;BME280;4481;43.406;24.454;2022-09-16T12:20:05;74397.91;;;-144.09;65.38
8890;BME280;4481;43.406;24.454;2022-09-16T12:22:38;74377.03;;;-144.09;65.92
8890;BME280;4481;43.406;24.454;2022-09-16T12:25:08;74381.22;;;-144.09;66.87
8890;BME280;4481;43.406;24.454;2022-09-16T12:27:42;74381.22;;;-144.09;67.86
8890;BME280;4481;43.406;24.454;2022-09-16T12:30:14;74377.03;;;-144.09;68.45
8890;BME280;4481;43.406;24.454;2022-09-16T12:32:49;74381.22;;;-144.09;68.89
8890;BME280;4481;43.406;24.454;2022-09-16T12:35:21;74383.31;;;-144.09;69.59
8890;BME280;4481;43.406;24.454;2022-09-16T12:37:52;74395.84;;;-144.09;69.57
8890;BME280;4481;43.406;24.454;2022-09-16T12:40:20;74395.84;;;-144.09;69.66
8890;BME280;4481;43.406;24.454;2022-09-16T12:43:17;74372.88;;;-144.09;70.04
8890;BME280;4481;43.406;24.454;2022-09-16T12:46:02;74364.50;;;-144.09;69.25
8890;BME280;4481;43.406;24.454;2022-09-16T12:48:57;74370.78;;;-144.09;69.31
8890;BME280;4481;43.406;24.454;2022-09-16T12:55:24;74385.38;;;-144.09;68.95
8890;BME280;4481;43.406;24.454;2022-09-16T12:58:07;74387.47;;;-144.09;68.46
8890;BME280;4481;43.406;24.454;2022-09-16T13:00:40;74404.19;;;-144.09;69.10
8890;BME280;4481;43.406;24.454;2022-09-16T13:03:14;74400.00;;;-144.09;68.76
8890;BME280;4481;43.406;24.454;2022-09-16T13:05:44;74404.19;;;-144.09;68.79
8890;BME280;4481;43.406;24.454;2022-09-16T13:08:19;74414.63;;;-144.09;69.30
8890;BME280;4481;43.406;24.454;2022-09-16T13:10:54;74429.25;;;-144.09;68.62
8890;BME280;4481;43.406;24.454;2022-09-16T13:13:28;74433.41;;;-144.09;67.16
8890;BME280;4481;43.406;24.454;2022-09-16T13:15:58;74443.88;;;-144.09;65.17
8890;BME280;4481;43.406;24.454;2022-09-16T13:18:38;74425.06;;;-144.09;64.76
8890;BME280;4481;43.406;24.454;2022-09-16T13:21:10;74408.38;;;-144.09;64.68
8890;BME280;4481;43.406;24.454;2022-09-16T13:23:41;74393.75;;;-144.09;64.50
8890;BME280;4481;43.406;24.454;2022-09-16T13:26:10;74368.69;;;-144.09;64.24